sensor_id;sensor_type;location;lat;lon;timestamp;P1;durP1;ratioP1;P2;durP2;ratioP2
1799;SDS011;919;48.274;12.292;2024-01-15T00:00:51;12.67;;;7.03;;
1799;SDS011;919;48.274;12.292;2024-01-15T00:03:19;16.27;;;8.87;;
1799;SDS011;919;48.274;12.292;2024-01-15T00:05:46;11.50;;;7.23;;
1799;SDS011;919;48.274;12.292;2024-01-15T00:08:13;12.77;;;7.70;;
1799;SDS011;919;48.274;12.292;2024-01-15T00:10:39;11.47;;;7.17;;
1799;SDS011;919;48.274;12.292;2024-01-15T00:13:06;14.00;;;7.37;;
1799;SDS011;919;48.274;12.292;2024-01-15T00:15:33;18.13;;;6.97;;
1799;SDS011;919;48.274;12.292;2024-01-15T00:18:00;12.77;;;7.30;;
1799;SDS011;919;48.274;12.292;2024-01-15T00:20:28;10.10;;;6.03;;
1799;SDS011;919;48.274;12.292;2024-01-15T00:22:54;15.97;;;7.50;;
1799;SDS011;919;48.274;12.292;2024-01-15T00:25:21;13.17;;;6.30;;
1799;SDS011;919;48.274;12.292;2024-01-15T00:27:48;8.90;;;7.13;;
1799;SDS011;919;48.274;12.292;2024-01-15T00:30:15;16.60;;;6.90;;
1799;SDS011;919;48.274;12.292;2024-01-15T00:32:42;10.33;;;6.20;;
1799;SDS011;919;48.274;12.292;2024-01-15T00:35:09;15.27;;;7.60;;
1799;SDS011;919;48.274;12.292;2024-01-15T00:37:37;12.77;;;7.37;;
1799;SDS011;919;48.274;12.292;2024-01-15T00:40:05;12.93;;;6.90;;
1799;SDS011;919;48.274;12.292;2024-01-15T00:42:32;15.77;;;7.97;;
1799;SDS011;919;48.274;12.292;2024-01-15T00:44:59;11.77;;;7.00;;
1799;SDS011;919;48.274;12.292;2024-01-15T00:47:26;11.47;;;7.63;;
1799;SDS011;919;48.274;12.292;2024-01-15T00:49:53;11.70;;;6.00;;
1799;SDS011;919;48.274;12.292;2024-01-15T00:52:19;13.23;;;6.87;;
1799;SDS011;919;48.274;12.292;2024-01-15T00:54:47;11.80;;;6.60;;
1799;SDS011;919;48.274;12.292;2024-01-15T00:57:14;15.43;;;6.53;;
1799;SDS011;919;48.274;12.292;2024-01-15T00:59:41;11.80;;;7.30;;
1799;SDS011;919;48.274;12.292;2024-01-15T01:02:07;14.93;;;8.57;;
1799;SDS011;919;48.274;12.292;2024-01-15T01:04:34;11.53;;;7.73;;
1799;SDS011;919;48.274;12.292;2024-01-15T01:07:01;11.67;;;7.00;;
1799;SDS011;919;48.274;12.292;2024-01-15T01:09:27;19.67;;;10.80;;
1799;SDS011;919;48.274;12.292;2024-01-15T01:11:56;16.37;;;9.33;;
1799;SDS011;919;48.274;12.292;2024-01-15T01:14:23;14.00;;;8.20;;
1799;SDS011;919;48.274;12.292;2024-01-15T01:16:50;10.47;;;6.43;;
1799;SDS011;919;48.274;12.292;2024-01-15T01:19:16;14.03;;;7.47;;
1799;SDS011;919;48.274;12.292;2024-01-15T01:21:43;14.63;;;7.30;;
1799;SDS011;919;48.274;12.292;2024-01-15T01:24:10;13.30;;;7.43;;
1799;SDS011;919;48.274;12.292;2024-01-15T01:26:36;19.67;;;8.80;;
1799;SDS011;919;48.274;12.292;2024-01-15T01:29:04;15.00;;;7.50;;
1799;SDS011;919;48.274;12.292;2024-01-15T01:31:31;14.97;;;7.90;;
1799;SDS011;919;48.274;12.292;2024-01-15T01:33:58;12.00;;;7.10;;
1799;SDS011;919;48.274;12.292;2024-01-15T01:36:25;13.03;;;6.43;;
1799;SDS011;919;48.274;12.292;2024-01-15T01:38:51;12.40;;;7.00;;
1799;SDS011;919;48.274;12.292;2024-01-15T01:41:18;16.17;;;7.97;;
1799;SDS011;919;48.274;12.292;2024-01-15T01:43:45;14.93;;;7.60;;
1799;SDS011;919;48.274;12.292;2024-01-15T01:46:13;12.60;;;7.70;;
1799;SDS011;919;48.274;12.292;2024-01-15T01:48:40;10.13;;;6.90;;
1799;SDS011;919;48.274;12.292;2024-01-15T01:51:06;12.47;;;6.97;;
1799;SDS011;919;48.274;12.292;2024-01-15T01:53:33;13.10;;;7.00;;
1799;SDS011;919;48.274;12.292;2024-01-15T01:56:02;7.23;;;5.57;;
1799;SDS011;919;48.274;12.292;2024-01-15T01:58:30;11.50;;;5.83;;
1799;SDS011;919;48.274;12.292;2024-01-15T02:00:58;9.43;;;6.00;;
1799;SDS011;919;48.274;12.292;2024-01-15T02:03:27;13.60;;;5.80;;
1799;SDS011;919;48.274;12.292;2024-01-15T02:05:54;8.70;;;5.50;;
1799;SDS011;919;48.274;12.292;2024-01-15T02:08:21;14.07;;;7.10;;
1799;SDS011;919;48.274;12.292;2024-01-15T02:10:48;15.57;;;7.07;;
1799;SDS011;919;48.274;12.292;2024-01-15T02:13:14;11.73;;;6.37;;
1799;SDS011;919;48.274;12.292;2024-01-15T02:15:41;13.83;;;5.90;;
1799;SDS011;919;48.274;12.292;2024-01-15T02:18:08;9.93;;;5.20;;
1799;SDS011;919;48.274;12.292;2024-01-15T02:20:36;12.70;;;6.83;;
1799;SDS011;919;48.274;12.292;2024-01-15T02:23:07;12.50;;;6.70;;
1799;SDS011;919;48.274;12.292;2024-01-15T02:25:36;12.07;;;6.97;;
1799;SDS011;919;48.274;12.292;2024-01-15T02:28:04;12.83;;;7.00;;
1799;SDS011;919;48.274;12.292;2024-01-15T02:30:32;16.40;;;6.23;;
1799;SDS011;919;48.274;12.292;2024-01-15T02:33:00;13.97;;;6.00;;
1799;SDS011;919;48.274;12.292;2024-01-15T02:35:27;9.03;;;6.23;;
1799;SDS011;919;48.274;12.292;2024-01-15T02:37:53;9.60;;;5.93;;
1799;SDS011;919;48.274;12.292;2024-01-15T02:40:21;10.83;;;6.10;;
1799;SDS011;919;48.274;12.292;2024-01-15T02:42:48;11.87;;;7.20;;
1799;SDS011;919;48.274;12.292;2024-01-15T02:45:15;11.43;;;6.50;;
1799;SDS011;919;48.274;12.292;2024-01-15T02:47:42;15.73;;;7.93;;
1799;SDS011;919;48.274;12.292;2024-01-15T02:50:08;9.70;;;6.33;;
1799;SDS011;919;48.274;12.292;2024-01-15T02:52:35;13.60;;;6.93;;
1799;SDS011;919;48.274;12.292;2024-01-15T02:55:02;11.67;;;7.37;;
1799;SDS011;919;48.274;12.292;2024-01-15T02:57:30;11.97;;;6.33;;
1799;SDS011;919;48.274;12.292;2024-01-15T02:59:57;11.50;;;6.60;;
1799;SDS011;919;48.274;12.292;2024-01-15T03:02:24;16.33;;;6.87;;
1799;SDS011;919;48.274;12.292;2024-01-15T03:04:50;12.97;;;5.87;;
1799;SDS011;919;48.274;12.292;2024-01-15T03:07:17;12.47;;;7.47;;
1799;SDS011;919;48.274;12.292;2024-01-15T03:09:44;12.90;;;6.17;;
1799;SDS011;919;48.274;12.292;2024-01-15T03:12:10;12.37;;;6.50;;
1799;SDS011;919;48.274;12.292;2024-01-15T03:14:39;15.57;;;5.70;;
1799;SDS011;919;48.274;12.292;2024-01-15T03:17:06;11.60;;;6.70;;
1799;SDS011;919;48.274;12.292;2024-01-15T03:19:34;15.47;;;8.60;;
1799;SDS011;919;48.274;12.292;2024-01-15T03:22:00;10.80;;;6.00;;
1799;SDS011;919;48.274;12.292;2024-01-15T03:24:28;16.87;;;7.17;;
1799;SDS011;919;48.274;12.292;2024-01-15T03:26:55;13.10;;;5.70;;
1799;SDS011;919;48.274;12.292;2024-01-15T03:29:22;13.50;;;6.07;;
1799;SDS011;919;48.274;12.292;2024-01-15T03:31:50;11.20;;;5.93;;
1799;SDS011;919;48.274;12.292;2024-01-15T03:34:17;10.57;;;5.97;;
1799;SDS011;919;48.274;12.292;2024-01-15T03:36:43;12.53;;;5.50;;
1799;SDS011;919;48.274;12.292;2024-01-15T03:39:10;8.77;;;5.33;;
1799;SDS011;919;48.274;12.292;2024-01-15T03:41:37;11.93;;;5.63;;
1799;SDS011;919;48.274;12.292;2024-01-15T03:44:04;9.03;;;4.93;;
1799;SDS011;919;48.274;12.292;2024-01-15T03:46:30;9.40;;;6.30;;
1799;SDS011;919;48.274;12.292;2024-01-15T03:48:59;11.80;;;6.40;;
1799;SDS011;919;48.274;12.292;2024-01-15T03:51:25;13.97;;;6.30;;
1799;SDS011;919;48.274;12.292;2024-01-15T03:53:52;9.57;;;5.37;;
1799;SDS011;919;48.274;12.292;2024-01-15T03:56:19;8.30;;;5.40;;
1799;SDS011;919;48.274;12.292;2024-01-15T03:58:45;9.30;;;5.47;;
1799;SDS011;919;48.274;12.292;2024-01-15T04:01:12;10.20;;;5.40;;
1799;SDS011;919;48.274;12.292;2024-01-15T04:03:39;9.77;;;5.10;;
1799;SDS011;919;48.274;12.292;2024-01-15T04:06:07;6.40;;;3.93;;
1799;SDS011;919;48.274;12.292;2024-01-15T04:08:34;10.00;;;4.90;;
1799;SDS011;919;48.274;12.292;2024-01-15T04:11:00;9.10;;;5.10;;
1799;SDS011;919;48.274;12.292;2024-01-15T04:13:27;9.47;;;5.47;;
1799;SDS011;919;48.274;12.292;2024-01-15T04:15:54;11.67;;;5.37;;
1799;SDS011;919;48.274;12.292;2024-01-15T04:18:20;8.37;;;4.20;;
1799;SDS011;919;48.274;12.292;2024-01-15T04:20:47;11.80;;;4.00;;
1799;SDS011;919;48.274;12.292;2024-01-15T04:23:15;8.87;;;4.80;;
1799;SDS011;919;48.274;12.292;2024-01-15T04:25:42;9.70;;;5.20;;
1799;SDS011;919;48.274;12.292;2024-01-15T04:28:09;8.30;;;4.83;;
1799;SDS011;919;48.274;12.292;2024-01-15T04:30:36;9.27;;;5.30;;
1799;SDS011;919;48.274;12.292;2024-01-15T04:33:03;8.63;;;4.80;;
1799;SDS011;919;48.274;12.292;2024-01-15T04:35:30;9.73;;;5.57;;
1799;SDS011;919;48.274;12.292;2024-01-15T04:37:56;9.80;;;5.23;;
1799;SDS011;919;48.274;12.292;2024-01-15T04:40:25;9.37;;;4.53;;
1799;SDS011;919;48.274;12.292;2024-01-15T04:42:52;5.93;;;4.33;;
1799;SDS011;919;48.274;12.292;2024-01-15T04:45:19;7.77;;;4.03;;
1799;SDS011;919;48.274;12.292;2024-01-15T04:47:47;7.93;;;4.43;;
1799;SDS011;919;48.274;12.292;2024-01-15T04:50:14;7.83;;;5.00;;
1799;SDS011;919;48.274;12.292;2024-01-15T04:52:41;8.80;;;4.60;;
1799;SDS011;919;48.274;12.292;2024-01-15T04:55:08;11.20;;;4.70;;
1799;SDS011;919;48.274;12.292;2024-01-15T04:57:36;4.90;;;4.00;;
1799;SDS011;919;48.274;12.292;2024-01-15T05:00:03;10.70;;;5.20;;
1799;SDS011;919;48.274;12.292;2024-01-15T05:02:31;8.87;;;4.40;;
1799;SDS011;919;48.274;12.292;2024-01-15T05:04:57;4.73;;;4.07;;
1799;SDS011;919;48.274;12.292;2024-01-15T05:07:24;8.70;;;5.20;;
1799;SDS011;919;48.274;12.292;2024-01-15T05:09:51;7.67;;;4.80;;
1799;SDS011;919;48.274;12.292;2024-01-15T05:12:18;8.17;;;4.50;;
1799;SDS011;919;48.274;12.292;2024-01-15T05:14:46;9.00;;;4.30;;
1799;SDS011;919;48.274;12.292;2024-01-15T05:17:12;8.70;;;6.03;;
1799;SDS011;919;48.274;12.292;2024-01-15T05:19:39;12.20;;;6.10;;
1799;SDS011;919;48.274;12.292;2024-01-15T05:22:06;9.00;;;4.87;;
1799;SDS011;919;48.274;12.292;2024-01-15T05:24:32;9.83;;;5.27;;
1799;SDS011;919;48.274;12.292;2024-01-15T05:26:59;7.93;;;4.93;;
1799;SDS011;919;48.274;12.292;2024-01-15T05:29:26;8.83;;;4.33;;
1799;SDS011;919;48.274;12.292;2024-01-15T05:31:54;8.33;;;4.73;;
1799;SDS011;919;48.274;12.292;2024-01-15T05:34:21;6.60;;;3.80;;
1799;SDS011;919;48.274;12.292;2024-01-15T05:36:48;11.03;;;4.43;;
1799;SDS011;919;48.274;12.292;2024-01-15T05:39:14;10.00;;;5.00;;
1799;SDS011;919;48.274;12.292;2024-01-15T05:41:41;9.20;;;5.33;;
1799;SDS011;919;48.274;12.292;2024-01-15T05:44:08;10.60;;;5.47;;
1799;SDS011;919;48.274;12.292;2024-01-15T05:46:35;8.77;;;4.70;;
1799;SDS011;919;48.274;12.292;2024-01-15T05:49:03;9.87;;;5.60;;
1799;SDS011;919;48.274;12.292;2024-01-15T05:51:29;12.60;;;5.07;;
1799;SDS011;919;48.274;12.292;2024-01-15T05:53:56;13.50;;;5.03;;
1799;SDS011;919;48.274;12.292;2024-01-15T05:56:23;6.90;;;4.30;;
1799;SDS011;919;48.274;12.292;2024-01-15T05:58:50;7.87;;;5.00;;
1799;SDS011;919;48.274;12.292;2024-01-15T06:01:17;7.50;;;4.87;;
1799;SDS011;919;48.274;12.292;2024-01-15T06:03:44;7.23;;;4.30;;
1799;SDS011;919;48.274;12.292;2024-01-15T06:06:12;5.73;;;4.07;;
1799;SDS011;919;48.274;12.292;2024-01-15T06:08:39;8.87;;;4.40;;
1799;SDS011;919;48.274;12.292;2024-01-15T06:11:06;5.53;;;3.93;;
1799;SDS011;919;48.274;12.292;2024-01-15T06:13:33;5.87;;;4.30;;
1799;SDS011;919;48.274;12.292;2024-01-15T06:16:00;8.77;;;5.10;;
1799;SDS011;919;48.274;12.292;2024-01-15T06:18:26;9.03;;;4.53;;
1799;SDS011;919;48.274;12.292;2024-01-15T06:20:53;6.50;;;4.20;;
1799;SDS011;919;48.274;12.292;2024-01-15T06:23:21;13.00;;;4.60;;
1799;SDS011;919;48.274;12.292;2024-01-15T06:25:48;7.00;;;4.10;;
1799;SDS011;919;48.274;12.292;2024-01-15T06:28:13;7.40;;;4.37;;
1799;SDS011;919;48.274;12.292;2024-01-15T06:30:40;6.60;;;4.20;;
1799;SDS011;919;48.274;12.292;2024-01-15T06:33:07;6.30;;;3.87;;
1799;SDS011;919;48.274;12.292;2024-01-15T06:35:33;7.97;;;4.47;;
1799;SDS011;919;48.274;12.292;2024-01-15T06:38:00;10.10;;;5.40;;
1799;SDS011;919;48.274;12.292;2024-01-15T06:40:28;7.90;;;4.07;;
1799;SDS011;919;48.274;12.292;2024-01-15T06:42:55;8.87;;;4.80;;
1799;SDS011;919;48.274;12.292;2024-01-15T06:45:22;6.80;;;4.60;;
1799;SDS011;919;48.274;12.292;2024-01-15T06:47:48;7.80;;;4.57;;
1799;SDS011;919;48.274;12.292;2024-01-15T06:50:15;6.93;;;4.30;;
1799;SDS011;919;48.274;12.292;2024-01-15T06:52:42;5.97;;;3.83;;
1799;SDS011;919;48.274;12.292;2024-01-15T06:55:08;7.00;;;4.83;;
1799;SDS011;919;48.274;12.292;2024-01-15T06:57:36;9.80;;;4.03;;
1799;SDS011;919;48.274;12.292;2024-01-15T07:00:03;8.20;;;4.83;;
1799;SDS011;919;48.274;12.292;2024-01-15T07:02:33;8.23;;;4.43;;
1799;SDS011;919;48.274;12.292;2024-01-15T07:04:59;5.50;;;3.70;;
1799;SDS011;919;48.274;12.292;2024-01-15T07:07:26;6.60;;;4.07;;
1799;SDS011;919;48.274;12.292;2024-01-15T07:09:54;6.53;;;4.17;;
1799;SDS011;919;48.274;12.292;2024-01-15T07:12:21;7.73;;;4.13;;
1799;SDS011;919;48.274;12.292;2024-01-15T07:14:49;6.60;;;4.60;;
1799;SDS011;919;48.274;12.292;2024-01-15T07:17:16;6.53;;;4.37;;
1799;SDS011;919;48.274;12.292;2024-01-15T07:19:43;8.03;;;4.40;;
1799;SDS011;919;48.274;12.292;2024-01-15T07:22:09;6.27;;;4.47;;
1799;SDS011;919;48.274;12.292;2024-01-15T07:24:36;7.90;;;4.03;;
1799;SDS011;919;48.274;12.292;2024-01-15T07:27:03;7.17;;;3.83;;
1799;SDS011;919;48.274;12.292;2024-01-15T07:29:30;15.53;;;4.20;;
1799;SDS011;919;48.274;12.292;2024-01-15T07:31:59;6.50;;;3.50;;
1799;SDS011;919;48.274;12.292;2024-01-15T07:34:26;6.93;;;4.10;;
1799;SDS011;919;48.274;12.292;2024-01-15T07:36:53;4.87;;;3.70;;
1799;SDS011;919;48.274;12.292;2024-01-15T07:39:19;5.30;;;3.53;;
1799;SDS011;919;48.274;12.292;2024-01-15T07:41:47;7.57;;;3.87;;
1799;SDS011;919;48.274;12.292;2024-01-15T07:44:14;8.13;;;3.80;;
1799;SDS011;919;48.274;12.292;2024-01-15T07:46:43;5.60;;;4.13;;
1799;SDS011;919;48.274;12.292;2024-01-15T07:49:12;8.03;;;4.87;;
1799;SDS011;919;48.274;12.292;2024-01-15T07:51:39;6.17;;;4.03;;
1799;SDS011;919;48.274;12.292;2024-01-15T07:54:08;7.43;;;3.70;;
1799;SDS011;919;48.274;12.292;2024-01-15T07:59:22;5.97;;;3.30;;
1799;SDS011;919;48.274;12.292;2024-01-15T08:01:49;4.87;;;3.27;;
1799;SDS011;919;48.274;12.292;2024-01-15T08:04:17;4.13;;;3.53;;
1799;SDS011;919;48.274;12.292;2024-01-15T08:06:43;7.07;;;3.77;;
1799;SDS011;919;48.274;12.292;2024-01-15T08:09:10;5.90;;;3.03;;
1799;SDS011;919;48.274;12.292;2024-01-15T08:11:38;4.17;;;3.07;;
1799;SDS011;919;48.274;12.292;2024-01-15T08:14:06;4.80;;;2.83;;
1799;SDS011;919;48.274;12.292;2024-01-15T08:16:33;3.00;;;2.67;;
1799;SDS011;919;48.274;12.292;2024-01-15T08:19:00;2.93;;;2.40;;
1799;SDS011;919;48.274;12.292;2024-01-15T08:21:28;3.57;;;2.60;;
1799;SDS011;919;48.274;12.292;2024-01-15T08:23:56;4.10;;;2.50;;
1799;SDS011;919;48.274;12.292;2024-01-15T08:26:23;6.00;;;3.13;;
1799;SDS011;919;48.274;12.292;2024-01-15T08:28:50;5.47;;;3.40;;
1799;SDS011;919;48.274;12.292;2024-01-15T08:31:17;4.30;;;3.20;;
1799;SDS011;919;48.274;12.292;2024-01-15T08:33:44;5.13;;;3.20;;
1799;SDS011;919;48.274;12.292;2024-01-15T08:36:11;3.80;;;3.03;;
1799;SDS011;919;48.274;12.292;2024-01-15T08:38:39;4.93;;;3.20;;
1799;SDS011;919;48.274;12.292;2024-01-15T08:41:05;4.63;;;3.33;;
1799;SDS011;919;48.274;12.292;2024-01-15T08:43:33;6.97;;;3.20;;
1799;SDS011;919;48.274;12.292;2024-01-15T08:46:00;3.87;;;2.77;;
1799;SDS011;919;48.274;12.292;2024-01-15T08:48:27;5.60;;;3.83;;
1799;SDS011;919;48.274;12.292;2024-01-15T08:50:54;8.70;;;3.40;;
1799;SDS011;919;48.274;12.292;2024-01-15T08:53:21;3.90;;;3.30;;
1799;SDS011;919;48.274;12.292;2024-01-15T08:55:50;7.30;;;3.90;;
1799;SDS011;919;48.274;12.292;2024-01-15T08:58:16;5.30;;;3.47;;
1799;SDS011;919;48.274;12.292;2024-01-15T09:00:43;3.27;;;2.90;;
1799;SDS011;919;48.274;12.292;2024-01-15T09:03:10;6.57;;;3.63;;
1799;SDS011;919;48.274;12.292;2024-01-15T09:05:37;7.00;;;3.33;;
1799;SDS011;919;48.274;12.292;2024-01-15T09:08:04;4.60;;;3.23;;
1799;SDS011;919;48.274;12.292;2024-01-15T09:10:31;3.70;;;3.17;;
1799;SDS011;919;48.274;12.292;2024-01-15T09:12:59;6.70;;;3.57;;
1799;SDS011;919;48.274;12.292;2024-01-15T09:15:26;6.40;;;3.60;;
1799;SDS011;919;48.274;12.292;2024-01-15T09:17:52;5.83;;;3.97;;
1799;SDS011;919;48.274;12.292;2024-01-15T09:20:19;7.07;;;3.93;;
1799;SDS011;919;48.274;12.292;2024-01-15T09:22:46;6.60;;;3.47;;
1799;SDS011;919;48.274;12.292;2024-01-15T09:25:13;7.50;;;3.40;;
1799;SDS011;919;48.274;12.292;2024-01-15T09:27:40;5.20;;;3.60;;
1799;SDS011;919;48.274;12.292;2024-01-15T09:30:09;5.73;;;3.73;;
1799;SDS011;919;48.274;12.292;2024-01-15T09:32:36;5.70;;;4.00;;
1799;SDS011;919;48.274;12.292;2024-01-15T09:35:03;4.97;;;4.00;;
1799;SDS011;919;48.274;12.292;2024-01-15T09:37:31;6.63;;;3.73;;
1799;SDS011;919;48.274;12.292;2024-01-15T09:39:58;5.90;;;4.57;;
1799;SDS011;919;48.274;12.292;2024-01-15T09:42:24;4.73;;;3.57;;
1799;SDS011;919;48.274;12.292;2024-01-15T09:44:51;6.70;;;4.20;;
1799;SDS011;919;48.274;12.292;2024-01-15T09:47:20;5.50;;;4.00;;
1799;SDS011;919;48.274;12.292;2024-01-15T09:49:47;6.77;;;4.50;;
1799;SDS011;919;48.274;12.292;2024-01-15T09:52:14;6.17;;;4.30;;
1799;SDS011;919;48.274;12.292;2024-01-15T09:54:45;5.73;;;2.97;;
1799;SDS011;919;48.274;12.292;2024-01-15T09:57:12;4.80;;;3.53;;
1799;SDS011;919;48.274;12.292;2024-01-15T09:59:39;6.10;;;3.60;;
1799;SDS011;919;48.274;12.292;2024-01-15T10:02:09;6.87;;;4.00;;
1799;SDS011;919;48.274;12.292;2024-01-15T10:04:41;6.00;;;4.40;;
1799;SDS011;919;48.274;12.292;2024-01-15T10:07:09;6.70;;;3.80;;
1799;SDS011;919;48.274;12.292;2024-01-15T10:09:38;4.00;;;3.37;;
1799;SDS011;919;48.274;12.292;2024-01-15T10:12:05;5.53;;;3.60;;
1799;SDS011;919;48.274;12.292;2024-01-15T10:14:33;4.50;;;3.53;;
1799;SDS011;919;48.274;12.292;2024-01-15T10:17:00;6.00;;;3.33;;
1799;SDS011;919;48.274;12.292;2024-01-15T10:19:36;7.77;;;4.23;;
1799;SDS011;919;48.274;12.292;2024-01-15T10:22:04;6.53;;;4.03;;
1799;SDS011;919;48.274;12.292;2024-01-15T10:24:31;6.77;;;3.90;;
1799;SDS011;919;48.274;12.292;2024-01-15T10:27:04;4.70;;;3.00;;
1799;SDS011;919;48.274;12.292;2024-01-15T10:29:32;5.63;;;3.47;;
1799;SDS011;919;48.274;12.292;2024-01-15T10:31:58;8.80;;;3.97;;
1799;SDS011;919;48.274;12.292;2024-01-15T10:34:26;3.63;;;3.07;;
1799;SDS011;919;48.274;12.292;2024-01-15T10:36:52;4.93;;;3.73;;
1799;SDS011;919;48.274;12.292;2024-01-15T10:39:22;5.20;;;3.43;;
1799;SDS011;919;48.274;12.292;2024-01-15T10:41:49;6.63;;;3.73;;
1799;SDS011;919;48.274;12.292;2024-01-15T10:44:16;4.87;;;3.37;;
1799;SDS011;919;48.274;12.292;2024-01-15T10:46:44;6.87;;;4.00;;
1799;SDS011;919;48.274;12.292;2024-01-15T10:49:12;5.70;;;3.70;;
1799;SDS011;919;48.274;12.292;2024-01-15T10:51:39;4.67;;;3.07;;
1799;SDS011;919;48.274;12.292;2024-01-15T10:54:06;10.27;;;3.83;;
1799;SDS011;919;48.274;12.292;2024-01-15T10:56:37;7.43;;;4.50;;
1799;SDS011;919;48.274;12.292;2024-01-15T10:59:05;6.10;;;3.57;;
1799;SDS011;919;48.274;12.292;2024-01-15T11:01:34;7.90;;;3.80;;
1799;SDS011;919;48.274;12.292;2024-01-15T11:04:01;4.70;;;2.97;;
1799;SDS011;919;48.274;12.292;2024-01-15T11:06:28;5.80;;;4.00;;
1799;SDS011;919;48.274;12.292;2024-01-15T11:09:08;5.27;;;3.30;;
1799;SDS011;919;48.274;12.292;2024-01-15T11:11:35;3.90;;;3.00;;
1799;SDS011;919;48.274;12.292;2024-01-15T11:14:07;5.20;;;3.00;;
1799;SDS011;919;48.274;12.292;2024-01-15T11:19:25;4.53;;;3.30;;
1799;SDS011;919;48.274;12.292;2024-01-15T11:21:52;5.33;;;2.67;;
1799;SDS011;919;48.274;12.292;2024-01-15T11:24:35;5.43;;;3.17;;
1799;SDS011;919;48.274;12.292;2024-01-15T11:27:03;8.13;;;2.77;;
1799;SDS011;919;48.274;12.292;2024-01-15T11:29:32;4.87;;;3.20;;
1799;SDS011;919;48.274;12.292;2024-01-15T11:32:01;4.37;;;3.37;;
1799;SDS011;919;48.274;12.292;2024-01-15T11:37:26;3.77;;;3.03;;
1799;SDS011;919;48.274;12.292;2024-01-15T11:39:54;6.30;;;3.80;;
1799;SDS011;919;48.274;12.292;2024-01-15T11:42:22;4.97;;;3.23;;
1799;SDS011;919;48.274;12.292;2024-01-15T11:44:50;4.17;;;2.90;;
1799;SDS011;919;48.274;12.292;2024-01-15T11:47:23;4.37;;;2.90;;
1799;SDS011;919;48.274;12.292;2024-01-15T11:50:17;4.10;;;3.13;;
1799;SDS011;919;48.274;12.292;2024-01-15T11:52:46;5.53;;;3.27;;
1799;SDS011;919;48.274;12.292;2024-01-15T11:55:24;5.20;;;3.20;;
1799;SDS011;919;48.274;12.292;2024-01-15T11:57:54;2.93;;;2.40;;
1799;SDS011;919;48.274;12.292;2024-01-15T12:00:22;7.90;;;3.53;;
1799;SDS011;919;48.274;12.292;2024-01-15T12:02:49;4.60;;;3.13;;
1799;SDS011;919;48.274;12.292;2024-01-15T12:05:17;5.00;;;2.83;;
1799;SDS011;919;48.274;12.292;2024-01-15T12:07:45;3.07;;;2.60;;
1799;SDS011;919;48.274;12.292;2024-01-15T12:10:14;3.67;;;2.73;;
1799;SDS011;919;48.274;12.292;2024-01-15T12:12:45;5.37;;;3.07;;
1799;SDS011;919;48.274;12.292;2024-01-15T12:15:20;4.70;;;2.57;;
1799;SDS011;919;48.274;12.292;2024-01-15T12:17:48;9.63;;;3.50;;
1799;SDS011;919;48.274;12.292;2024-01-15T12:20:15;3.77;;;2.70;;
1799;SDS011;919;48.274;12.292;2024-01-15T12:22:44;3.90;;;2.80;;
1799;SDS011;919;48.274;12.292;2024-01-15T12:25:11;4.17;;;3.07;;
1799;SDS011;919;48.274;12.292;2024-01-15T12:27:37;4.23;;;3.13;;
1799;SDS011;919;48.274;12.292;2024-01-15T12:30:05;4.80;;;2.57;;
1799;SDS011;919;48.274;12.292;2024-01-15T12:32:35;4.33;;;3.17;;
1799;SDS011;919;48.274;12.292;2024-01-15T12:35:02;5.00;;;2.60;;
1799;SDS011;919;48.274;12.292;2024-01-15T12:37:29;4.93;;;3.33;;
1799;SDS011;919;48.274;12.292;2024-01-15T12:39:56;2.90;;;2.60;;
1799;SDS011;919;48.274;12.292;2024-01-15T12:42:25;4.43;;;2.90;;
1799;SDS011;919;48.274;12.292;2024-01-15T12:44:54;4.83;;;2.70;;
1799;SDS011;919;48.274;12.292;2024-01-15T12:47:22;4.50;;;2.90;;
1799;SDS011;919;48.274;12.292;2024-01-15T12:49:50;4.87;;;3.70;;
1799;SDS011;919;48.274;12.292;2024-01-15T12:52:18;4.47;;;3.27;;
1799;SDS011;919;48.274;12.292;2024-01-15T12:54:46;3.13;;;2.83;;
1799;SDS011;919;48.274;12.292;2024-01-15T12:57:13;3.27;;;2.90;;
1799;SDS011;919;48.274;12.292;2024-01-15T12:59:40;6.03;;;3.13;;
1799;SDS011;919;48.274;12.292;2024-01-15T13:02:06;3.30;;;2.67;;
1799;SDS011;919;48.274;12.292;2024-01-15T13:04:33;3.40;;;3.10;;
1799;SDS011;919;48.274;12.292;2024-01-15T13:07:01;6.87;;;2.67;;
1799;SDS011;919;48.274;12.292;2024-01-15T13:09:28;6.10;;;3.03;;
1799;SDS011;919;48.274;12.292;2024-01-15T13:11:55;3.93;;;3.07;;
1799;SDS011;919;48.274;12.292;2024-01-15T13:14:22;4.13;;;2.90;;
1799;SDS011;919;48.274;12.292;2024-01-15T13:16:49;4.50;;;2.80;;
1799;SDS011;919;48.274;12.292;2024-01-15T13:19:16;6.37;;;3.43;;
1799;SDS011;919;48.274;12.292;2024-01-15T13:21:44;4.50;;;2.90;;
1799;SDS011;919;48.274;12.292;2024-01-15T13:24:12;4.33;;;2.73;;
1799;SDS011;919;48.274;12.292;2024-01-15T13:26:39;7.37;;;2.60;;
1799;SDS011;919;48.274;12.292;2024-01-15T13:29:06;5.70;;;3.20;;
1799;SDS011;919;48.274;12.292;2024-01-15T13:31:33;4.03;;;2.77;;
1799;SDS011;919;48.274;12.292;2024-01-15T13:34:00;3.43;;;2.83;;
1799;SDS011;919;48.274;12.292;2024-01-15T13:36:26;4.63;;;3.60;;
1799;SDS011;919;48.274;12.292;2024-01-15T13:38:53;4.40;;;3.10;;
1799;SDS011;919;48.274;12.292;2024-01-15T13:41:21;6.30;;;3.67;;
1799;SDS011;919;48.274;12.292;2024-01-15T13:43:52;3.00;;;2.43;;
1799;SDS011;919;48.274;12.292;2024-01-15T13:46:19;10.03;;;2.93;;
1799;SDS011;919;48.274;12.292;2024-01-15T13:48:47;4.53;;;2.70;;
1799;SDS011;919;48.274;12.292;2024-01-15T13:51:13;4.33;;;2.57;;
1799;SDS011;919;48.274;12.292;2024-01-15T13:53:40;7.40;;;3.37;;
1799;SDS011;919;48.274;12.292;2024-01-15T13:56:07;5.60;;;3.20;;
1799;SDS011;919;48.274;12.292;2024-01-15T13:58:36;3.03;;;2.67;;
1799;SDS011;919;48.274;12.292;2024-01-15T14:01:03;2.87;;;2.30;;
1799;SDS011;919;48.274;12.292;2024-01-15T14:03:30;3.50;;;2.50;;
1799;SDS011;919;48.274;12.292;2024-01-15T14:05:57;2.90;;;2.20;;
1799;SDS011;919;48.274;12.292;2024-01-15T14:08:24;5.83;;;2.70;;
1799;SDS011;919;48.274;12.292;2024-01-15T14:10:51;3.43;;;2.77;;
1799;SDS011;919;48.274;12.292;2024-01-15T14:13:18;2.80;;;2.20;;
1799;SDS011;919;48.274;12.292;2024-01-15T14:15:46;2.83;;;1.80;;
1799;SDS011;919;48.274;12.292;2024-01-15T14:18:13;2.83;;;2.17;;
1799;SDS011;919;48.274;12.292;2024-01-15T14:20:40;2.43;;;2.00;;
1799;SDS011;919;48.274;12.292;2024-01-15T14:23:07;6.20;;;2.67;;
1799;SDS011;919;48.274;12.292;2024-01-15T14:25:34;3.20;;;2.40;;
1799;SDS011;919;48.274;12.292;2024-01-15T14:28:01;3.07;;;2.43;;
1799;SDS011;919;48.274;12.292;2024-01-15T14:30:28;4.57;;;2.80;;
1799;SDS011;919;48.274;12.292;2024-01-15T14:32:56;3.87;;;2.33;;
1799;SDS011;919;48.274;12.292;2024-01-15T14:35:23;3.27;;;1.77;;
1799;SDS011;919;48.274;12.292;2024-01-15T14:37:50;5.37;;;2.37;;
1799;SDS011;919;48.274;12.292;2024-01-15T14:40:16;3.33;;;2.40;;
1799;SDS011;919;48.274;12.292;2024-01-15T14:42:43;2.70;;;2.50;;
1799;SDS011;919;48.274;12.292;2024-01-15T14:45:10;4.43;;;3.00;;
1799;SDS011;919;48.274;12.292;2024-01-15T14:47:37;6.13;;;2.67;;
1799;SDS011;919;48.274;12.292;2024-01-15T14:50:06;3.00;;;2.47;;
1799;SDS011;919;48.274;12.292;2024-01-15T14:52:35;4.83;;;3.13;;
1799;SDS011;919;48.274;12.292;2024-01-15T14:55:02;4.03;;;2.20;;
1799;SDS011;919;48.274;12.292;2024-01-15T14:57:29;2.60;;;2.40;;
1799;SDS011;919;48.274;12.292;2024-01-15T14:59:56;3.80;;;3.20;;
1799;SDS011;919;48.274;12.292;2024-01-15T15:02:23;4.73;;;3.77;;
1799;SDS011;919;48.274;12.292;2024-01-15T15:04:53;4.97;;;3.40;;
1799;SDS011;919;48.274;12.292;2024-01-15T15:07:22;5.47;;;3.40;;
1799;SDS011;919;48.274;12.292;2024-01-15T15:09:49;5.10;;;3.00;;
1799;SDS011;919;48.274;12.292;2024-01-15T15:12:16;5.83;;;3.57;;
1799;SDS011;919;48.274;12.292;2024-01-15T15:14:43;5.17;;;3.30;;
1799;SDS011;919;48.274;12.292;2024-01-15T15:17:10;5.10;;;3.33;;
1799;SDS011;919;48.274;12.292;2024-01-15T15:19:37;4.30;;;3.50;;
1799;SDS011;919;48.274;12.292;2024-01-15T15:22:04;5.20;;;3.00;;